Time;durP1;ratioP1;P1;durP2;ratioP2;P2;SDS_P1;SDS_P2;PMS_P1;PMS_P2;Temp;Humidity;BMP_temperature;BMP_pressure;BME280_temperature;BME280_humidity;BME280_pressure;Samples;Min_cycle;Max_cycle;Signal;HPM_P1;HPM_P2
2021/06/07 00:02:10;;;;;;;;;;;;;;;;;;5003080;28;20403;-59
2021/06/07 00:04:37;;;;;;;12.23;10.05;;;;;;;;;;5004171;28;19960;-59
2021/06/07 00:07:05;;;;;;;15.73;10.15;;;;;;;;;;5002047;28;20140;-59
2021/06/07 00:09:32;;;;;;;13.95;10.23;;;;;;;;;;5001870;28;20047;-59
2021/06/07 00:12:02;;;;;;;11.43;9.30;;;;;;;;;;4999518;28;20030;-59
2021/06/07 00:14:31;;;;;;;17.63;11.52;;;;;;;;;;5002817;28;20045;-59
2021/06/07 00:16:59;;;;;;;17.58;11.30;;;;;;;;;;5004507;28;20133;-59
2021/06/07 00:19:27;;;;;;;14.95;11.10;;;;;;;;;;5001172;28;20510;-59
2021/06/07 00:21:53;;;;;;;16.45;12.27;;;;;;;;;;5004544;28;20034;-59
2021/06/07 00:24:21;;;;;;;14.75;11.05;;;;;;;;;;5001198;28;20100;-58
2021/06/07 00:26:48;;;;;;;17.52;11.40;;;;;;;;;;5000239;28;20049;-59
2021/06/07 00:29:15;;;;;;;14.55;10.77;;;;;;;;;;5002030;28;20706;-59
2021/06/07 00:31:42;;;;;;;14.00;11.48;;;;;;;;;;4998847;28;20527;-59
2021/06/07 00:34:10;;;;;;;15.43;11.55;;;;;;;;;;5002414;28;20050;-59
2021/06/07 00:36:37;;;;;;;17.95;12.45;;;;;;;;;;5001358;28;20041;-59
2021/06/07 00:39:06;;;;;;;15.73;12.38;;;;;;;;;;4999740;28;20056;-59
2021/06/07 00:41:32;;;;;;;18.17;13.32;;;;;;;;;;5003062;28;20084;-59
2021/06/07 00:44:00;;;;;;;17.60;12.73;;;;;;;;;;5002767;28;20038;-59
2021/06/07 00:46:28;;;;;;;21.50;12.63;;;;;;;;;;5004415;28;20042;-59
2021/06/07 00:48:55;;;;;;;19.25;13.45;;;;;;;;;;5002303;28;20053;-59
2021/06/07 00:51:22;;;;;;;17.10;13.90;;;;;;;;;;5003055;28;20497;-59
2021/06/07 00:53:49;;;;;;;17.77;13.80;;;;;;;;;;5003388;28;20050;-59
2021/06/07 00:56:16;;;;;;;17.25;11.95;;;;;;;;;;5000106;28;20037;-59
2021/06/07 00:58:46;;;;;;;18.87;13.87;;;;;;;;;;5001421;28;20044;-59
2021/06/07 01:01:14;;;;;;;16.95;14.63;;;;;;;;;;5001098;28;20544;-59
2021/06/07 01:03:42;;;;;;;18.20;14.40;;;;;;;;;;5005130;28;20062;-59
2021/06/07 01:06:09;;;;;;;16.13;14.20;;;;;;;;;;5003134;28;20045;-59
2021/06/07 01:08:37;;;;;;;22.38;14.88;;;;;;;;;;5006163;28;20046;-59
2021/06/07 01:11:05;;;;;;;16.80;14.80;;;;;;;;;;5008832;28;20038;-58
2021/06/07 01:13:32;;;;;;;20.42;14.68;;;;;;;;;;5001344;28;20513;-59
2021/06/07 01:15:59;;;;;;;21.97;15.93;;;;;;;;;;5008170;28;20042;-59
2021/06/07 01:18:29;;;;;;;23.08;16.63;;;;;;;;;;5004453;28;21131;-59
2021/06/07 01:21:00;;;;;;;21.05;16.35;;;;;;;;;;5005655;28;20145;-59
2021/06/07 01:23:28;;;;;;;24.50;17.10;;;;;;;;;;5004454;28;20069;-59
2021/06/07 01:25:55;;;;;;;18.48;16.38;;;;;;;;;;5003638;28;20488;-59
2021/06/07 01:28:22;;;;;;;21.58;17.08;;;;;;;;;;5001955;28;20072;-59
2021/06/07 01:30:54;;;;;;;21.65;17.13;;;;;;;;;;5007056;28;20061;-59
2021/06/07 01:33:22;;;;;;;23.08;18.17;;;;;;;;;;5007112;28;20509;-59
2021/06/07 01:35:50;;;;;;;24.98;18.63;;;;;;;;;;5005504;28;20076;-59
2021/06/07 01:38:18;;;;;;;24.73;18.77;;;;;;;;;;5007766;28;20127;-59
2021/06/07 01:40:46;;;;;;;24.98;19.42;;;;;;;;;;5006256;28;20065;-59
2021/06/07 01:43:12;;;;;;;28.17;20.08;;;;;;;;;;5004063;28;20064;-59
2021/06/07 01:45:41;;;;;;;24.67;20.20;;;;;;;;;;5007287;28;20450;-59
2021/06/07 01:48:10;;;;;;;22.85;19.48;;;;;;;;;;5002052;28;20057;-59
2021/06/07 01:50:37;;;;;;;26.25;21.63;;;;;;;;;;5008693;28;20041;-59
2021/06/07 01:53:05;;;;;;;20.83;16.63;;;;;;;;;;5005016;28;20060;-59
2021/06/07 01:55:33;;;;;;;22.83;19.17;;;;;;;;;;5005355;28;20434;-59
2021/06/07 01:58:00;;;;;;;23.45;20.95;;;;;;;;;;5003519;28;20042;-59
2021/06/07 02:00:29;;;;;;;27.95;21.05;;;;;;;;;;5005987;28;20038;-59
2021/06/07 02:02:56;;;;;;;28.60;21.95;;;;;;;;;;5004411;28;20404;-59
2021/06/07 02:05:28;;;;;;;29.90;22.65;;;;;;;;;;5006268;28;20046;-59
2021/06/07 02:07:58;;;;;;;26.63;20.95;;;;;;;;;;5007367;28;20046;-59
2021/06/07 02:10:26;;;;;;;29.45;21.92;;;;;;;;;;4999782;28;20084;-59
2021/06/07 02:12:53;;;;;;;27.88;19.92;;;;;;;;;;5001991;28;20466;-59
2021/06/07 02:15:20;;;;;;;27.27;23.37;;;;;;;;;;5004421;28;20049;-59
2021/06/07 02:17:47;;;;;;;32.53;24.20;;;;;;;;;;4998269;28;20042;-59
2021/06/07 02:20:15;;;;;;;29.67;21.57;;;;;;;;;;5000266;28;20049;-59
2021/06/07 02:22:43;;;;;;;27.58;22.30;;;;;;;;;;5007857;28;20556;-59
2021/06/07 02:25:11;;;;;;;28.92;23.23;;;;;;;;;;5005828;28;20061;-59
2021/06/07 02:27:38;;;;;;;34.85;23.98;;;;;;;;;;4997294;28;20418;-59
2021/06/07 02:30:09;;;;;;;37.50;25.07;;;;;;;;;;5004862;28;20120;-59
2021/06/07 02:32:36;;;;;;;35.47;25.38;;;;;;;;;;4999034;28;20370;-59
2021/06/07 02:35:04;;;;;;;31.90;24.23;;;;;;;;;;5006567;28;20049;-58
2021/06/07 02:37:31;;;;;;;33.05;24.35;;;;;;;;;;5006990;28;20042;-59
2021/06/07 02:39:58;;;;;;;31.73;25.20;;;;;;;;;;5004701;28;20046;-59
2021/06/07 02:42:25;;;;;;;33.00;25.13;;;;;;;;;;5008274;28;20478;-59
2021/06/07 02:44:53;;;;;;;25.77;23.00;;;;;;;;;;5006357;28;20049;-59
2021/06/07 02:47:20;;;;;;;37.17;27.23;;;;;;;;;;5003750;28;20042;-59
2021/06/07 02:49:47;;;;;;;32.63;27.50;;;;;;;;;;5004345;28;20046;-59
2021/06/07 02:52:14;;;;;;;37.37;26.93;;;;;;;;;;5001723;28;20042;-59
2021/06/07 02:54:41;;;;;;;34.53;23.97;;;;;;;;;;5005605;28;20050;-59
2021/06/07 02:57:07;;;;;;;35.33;26.70;;;;;;;;;;5000642;28;20042;-59
2021/06/07 02:59:34;;;;;;;25.20;20.57;;;;;;;;;;5000426;28;20042;-59
2021/06/07 03:02:01;;;;;;;28.67;25.57;;;;;;;;;;5001429;28;20039;-59
2021/06/07 03:04:27;;;;;;;35.08;24.55;;;;;;;;;;5006098;28;20300;-59
2021/06/07 03:06:55;;;;;;;28.00;25.02;;;;;;;;;;5007882;28;20045;-59
2021/06/07 03:09:22;;;;;;;37.20;25.25;;;;;;;;;;5003350;28;20439;-59
2021/06/07 03:11:48;;;;;;;33.97;25.45;;;;;;;;;;5003711;28;20061;-59
2021/06/07 03:14:15;;;;;;;29.08;24.30;;;;;;;;;;5006217;28;20640;-59
2021/06/07 03:16:42;;;;;;;35.72;25.58;;;;;;;;;;5007686;28;20042;-59
2021/06/07 03:19:08;;;;;;;32.92;25.75;;;;;;;;;;5002388;28;20129;-59
2021/06/07 03:21:35;;;;;;;36.85;26.23;;;;;;;;;;5001057;28;20050;-58
2021/06/07 03:24:02;;;;;;;35.35;27.45;;;;;;;;;;4996361;28;20050;-58
2021/06/07 03:26:29;;;;;;;29.50;25.27;;;;;;;;;;5000930;28;20052;-59
2021/06/07 03:28:56;;;;;;;40.43;25.77;;;;;;;;;;5003313;28;20449;-59
2021/06/07 03:31:23;;;;;;;31.40;25.30;;;;;;;;;;5005196;28;20170;-59
2021/06/07 03:33:50;;;;;;;36.55;25.65;;;;;;;;;;5001600;28;20100;-59
2021/06/07 03:36:20;;;;;;;31.83;24.85;;;;;;;;;;5005018;28;20049;-59
2021/06/07 03:38:47;;;;;;;35.08;25.58;;;;;;;;;;5003809;28;20453;-59
2021/06/07 03:41:14;;;;;;;33.95;23.75;;;;;;;;;;4998535;28;20510;-59
2021/06/07 03:43:43;;;;;;;37.00;25.05;;;;;;;;;;5002840;28;20073;-59
2021/06/07 03:46:10;;;;;;;34.13;26.77;;;;;;;;;;5003251;28;20049;-59
2021/06/07 03:48:37;;;;;;;33.03;27.05;;;;;;;;;;5000940;28;20109;-59
2021/06/07 03:51:04;;;;;;;35.70;25.92;;;;;;;;;;5002213;28;20042;-58
2021/06/07 03:53:31;;;;;;;41.20;27.13;;;;;;;;;;4998794;28;20097;-59
2021/06/07 03:55:58;;;;;;;37.27;25.97;;;;;;;;;;4999397;28;20049;-59
2021/06/07 03:58:26;;;;;;;32.67;26.05;;;;;;;;;;5000464;28;20065;-59
2021/06/07 04:00:53;;;;;;;35.30;26.55;;;;;;;;;;5005310;28;20054;-57
2021/06/07 04:03:20;;;;;;;37.28;26.73;;;;;;;;;;5005654;28;20038;-59
2021/06/07 04:05:47;;;;;;;38.60;26.83;;;;;;;;;;5004531;28;20052;-59
2021/06/07 04:08:14;;;;;;;35.75;24.70;;;;;;;;;;5002258;28;20097;-59
2021/06/07 04:10:44;;;;;;;32.92;26.73;;;;;;;;;;5004048;28;20034;-59
2021/06/07 04:13:11;;;;;;;33.20;26.65;;;;;;;;;;5006228;28;20564;-58
2021/06/07 04:15:38;;;;;;;32.30;26.45;;;;;;;;;;5004095;28;20486;-59
2021/06/07 04:18:05;;;;;;;29.05;25.27;;;;;;;;;;5003403;28;20549;-58
2021/06/07 04:20:32;;;;;;;36.70;24.52;;;;;;;;;;5001707;28;20422;-58
2021/06/07 04:22:59;;;;;;;30.95;25.80;;;;;;;;;;4986907;28;20471;-58
2021/06/07 04:25:27;;;;;;;32.35;24.42;;;;;;;;;;5004593;28;20045;-58
2021/06/07 04:27:55;;;;;;;34.13;24.95;;;;;;;;;;5000907;28;20037;-58
2021/06/07 04:30:22;;;;;;;31.85;24.25;;;;;;;;;;5002213;28;20076;-58
2021/06/07 04:32:49;;;;;;;31.80;24.35;;;;;;;;;;4997293;28;20101;-58
2021/06/07 04:35:16;;;;;;;;;;;;;;;;;;5001936;28;20092;-58
2021/06/07 04:37:49;;;;;;;34.65;24.55;;;;;;;;;;5000240;28;19929;-58
2021/06/07 04:40:18;;;;;;;33.20;24.98;;;;;;;;;;5004718;28;20046;-58
2021/06/07 04:42:45;;;;;;;42.70;26.98;;;;;;;;;;4999002;28;20400;-58
2021/06/07 04:45:12;;;;;;;39.03;27.20;;;;;;;;;;5000007;28;20092;-58
2021/06/07 04:47:39;;;;;;;32.92;26.35;;;;;;;;;;5000326;28;20289;-58
2021/06/07 04:50:07;;;;;;;34.58;25.92;;;;;;;;;;4997173;28;20094;-58
2021/06/07 04:52:35;;;;;;;41.38;26.98;;;;;;;;;;5004570;28;20033;-58
2021/06/07 04:55:03;;;;;;;31.45;26.20;;;;;;;;;;5001103;28;20074;-58
2021/06/07 04:57:30;;;;;;;32.22;26.10;;;;;;;;;;5007191;28;20030;-58
2021/06/07 04:59:57;;;;;;;31.65;25.33;;;;;;;;;;5005222;28;21766;-57
2021/06/07 05:02:23;;;;;;;28.05;24.98;;;;;;;;;;5001584;28;20502;-58
2021/06/07 05:04:50;;;;;;;29.63;25.25;;;;;;;;;;4997367;28;20499;-58
2021/06/07 05:07:17;;;;;;;32.67;25.15;;;;;;;;;;4999324;28;20053;-58
2021/06/07 05:09:43;;;;;;;32.78;26.38;;;;;;;;;;4999957;28;20073;-58
2021/06/07 05:12:10;;;;;;;35.40;25.63;;;;;;;;;;5002340;28;20399;-59
2021/06/07 05:14:37;;;;;;;36.10;25.63;;;;;;;;;;4997598;28;20046;-57
2021/06/07 05:17:04;;;;;;;31.83;24.95;;;;;;;;;;5000867;28;20048;-58
2021/06/07 05:19:31;;;;;;;30.83;23.23;;;;;;;;;;5000294;28;20050;-61
2021/06/07 05:21:58;;;;;;;34.00;25.53;;;;;;;;;;5006456;28;20514;-61
2021/06/07 05:24:25;;;;;;;31.35;25.85;;;;;;;;;;5004315;28;20073;-61
2021/06/07 05:26:51;;;;;;;30.08;23.15;;;;;;;;;;4999782;28;20057;-60
2021/06/07 05:29:18;;;;;;;27.33;22.65;;;;;;;;;;5000215;28;20046;-58
2021/06/07 05:31:45;;;;;;;33.17;22.30;;;;;;;;;;5001718;28;20052;-58
2021/06/07 05:34:12;;;;;;;27.67;20.73;;;;;;;;;;5003805;28;20062;-58
2021/06/07 05:36:39;;;;;;;24.42;18.15;;;;;;;;;;5000911;28;20042;-58
2021/06/07 05:39:08;;;;;;;22.42;18.70;;;;;;;;;;5001095;28;20046;-58
2021/06/07 05:41:35;;;;;;;20.23;16.75;;;;;;;;;;5004065;28;20078;-58
2021/06/07 05:44:02;;;;;;;24.42;16.73;;;;;;;;;;5004852;28;20060;-58
2021/06/07 05:46:29;;;;;;;23.02;14.35;;;;;;;;;;5002093;28;20081;-58
2021/06/07 05:48:56;;;;;;;21.70;14.57;;;;;;;;;;5002581;28;20486;-58
2021/06/07 05:51:22;;;;;;;18.08;13.75;;;;;;;;;;5001189;28;20091;-58
2021/06/07 05:53:49;;;;;;;17.67;13.17;;;;;;;;;;5004734;28;20042;-58
2021/06/07 05:56:16;;;;;;;22.60;12.93;;;;;;;;;;5006076;28;20069;-58
2021/06/07 05:58:42;;;;;;;15.13;12.40;;;;;;;;;;5006106;28;20033;-58
2021/06/07 06:01:09;;;;;;;16.33;12.45;;;;;;;;;;5005732;28;20041;-58
2021/06/07 06:03:38;;;;;;;15.25;12.27;;;;;;;;;;5007537;28;20580;-58
2021/06/07 06:06:04;;;;;;;19.98;13.93;;;;;;;;;;4998545;28;20057;-58
2021/06/07 06:08:31;;;;;;;21.85;12.32;;;;;;;;;;5008140;28;20402;-58
2021/06/07 06:10:58;;;;;;;19.88;11.82;;;;;;;;;;5005005;28;20050;-58
2021/06/07 06:13:46;;;;;;;16.83;11.63;;;;;;;;;;5005496;28;20521;-58
2021/06/07 06:16:13;;;;;;;17.02;11.20;;;;;;;;;;5002229;28;20042;-58
2021/06/07 06:18:40;;;;;;;12.98;9.82;;;;;;;;;;5005777;28;20395;-58
2021/06/07 06:21:07;;;;;;;21.17;9.87;;;;;;;;;;5007371;28;20048;-58
2021/06/07 06:23:39;;;;;;;19.88;10.65;;;;;;;;;;5004836;28;20088;-58
2021/06/07 06:26:06;;;;;;;10.63;9.32;;;;;;;;;;5000167;28;20117;-58
2021/06/07 06:28:35;;;;;;;13.45;10.02;;;;;;;;;;5004322;28;20034;-58
2021/06/07 06:31:02;;;;;;;12.10;10.80;;;;;;;;;;5003585;28;20058;-58
2021/06/07 06:33:29;;;;;;;14.88;10.70;;;;;;;;;;5008465;28;20116;-58
2021/06/07 06:35:56;;;;;;;10.90;8.75;;;;;;;;;;5005059;28;20050;-58
2021/06/07 06:38:23;;;;;;;9.75;8.75;;;;;;;;;;5008842;28;20066;-59
2021/06/07 06:40:52;;;;;;;13.30;9.10;;;;;;;;;;5008328;28;20042;-58
2021/06/07 06:43:20;;;;;;;18.88;9.32;;;;;;;;;;5005272;28;20498;-58
2021/06/07 06:45:49;;;;;;;13.05;9.25;;;;;;;;;;5007044;28;20042;-59
2021/06/07 06:48:16;;;;;;;11.52;8.65;;;;;;;;;;5002362;28;20042;-58
2021/06/07 06:50:43;;;;;;;13.50;8.05;;;;;;;;;;5004881;28;20065;-59
2021/06/07 06:53:13;;;;;;;11.60;7.70;;;;;;;;;;5000081;28;20038;-58
2021/06/07 06:55:40;;;;;;;12.48;7.82;;;;;;;;;;5008298;28;20057;-58
2021/06/07 06:58:09;;;;;;;11.18;7.65;;;;;;;;;;5006515;28;20046;-58
2021/06/07 07:00:37;;;;;;;10.50;7.07;;;;;;;;;;5005712;28;20095;-58
2021/06/07 07:03:05;;;;;;;12.38;7.68;;;;;;;;;;5001342;28;20042;-58
2021/06/07 07:05:31;;;;;;;11.98;7.28;;;;;;;;;;5003878;28;20103;-59
2021/06/07 07:07:58;;;;;;;7.72;6.90;;;;;;;;;;5002796;28;20046;-58
2021/06/07 07:10:24;;;;;;;11.57;7.78;;;;;;;;;;4999190;28;20101;-58
2021/06/07 07:12:51;;;;;;;11.15;7.00;;;;;;;;;;4998729;28;20049;-58
2021/06/07 07:15:18;;;;;;;10.90;6.97;;;;;;;;;;5003709;28;20444;-58
2021/06/07 07:17:46;;;;;;;12.63;6.78;;;;;;;;;;5004862;28;20498;-59
2021/06/07 07:20:13;;;;;;;12.43;7.88;;;;;;;;;;5004831;28;20049;-58
2021/06/07 07:22:41;;;;;;;8.27;7.25;;;;;;;;;;5004968;28;20030;-58
2021/06/07 07:25:07;;;;;;;;;;;;;;;;;;5003605;28;20096;-58
2021/06/07 07:27:36;;;;;;;12.63;7.47;;;;;;;;;;5003542;28;20305;-58
2021/06/07 07:30:08;;;;;;;11.18;7.60;;;;;;;;;;4998812;28;20054;-58
2021/06/07 07:32:35;;;;;;;17.85;7.95;;;;;;;;;;5003794;28;20053;-59
2021/06/07 07:35:03;;;;;;;10.27;7.05;;;;;;;;;;5006705;28;20041;-58
2021/06/07 07:37:33;;;;;;;10.18;7.65;;;;;;;;;;5001988;28;20498;-58
2021/06/07 07:40:00;;;;;;;12.55;7.15;;;;;;;;;;5005890;28;20084;-58
2021/06/07 07:42:26;;;;;;;10.48;7.43;;;;;;;;;;4999634;28;20609;-58
2021/06/07 07:44:53;;;;;;;8.27;6.72;;;;;;;;;;5005894;28;20046;-58
2021/06/07 07:47:21;;;;;;;9.97;7.30;;;;;;;;;;4995774;28;20054;-58
2021/06/07 07:49:47;;;;;;;;;;;;;;;;;;5003263;28;20052;-59
2021/06/07 07:52:15;;;;;;;12.77;7.47;;;;;;;;;;5005697;28;19968;-58
2021/06/07 07:54:41;;;;;;;9.27;6.63;;;;;;;;;;5003140;28;20042;-58
2021/06/07 07:57:12;;;;;;;11.18;7.45;;;;;;;;;;5003105;28;20093;-58
2021/06/07 07:59:40;;;;;;;11.50;6.78;;;;;;;;;;5002681;28;20092;-58
2021/06/07 08:02:08;;;;;;;11.75;5.78;;;;;;;;;;5009030;28;20050;-58
2021/06/07 08:04:35;;;;;;;9.15;5.95;;;;;;;;;;5001190;28;20076;-58
2021/06/07 08:07:03;;;;;;;10.48;6.05;;;;;;;;;;4999590;28;20061;-58
2021/06/07 08:09:31;;;;;;;8.55;5.70;;;;;;;;;;4999946;28;20092;-58
2021/06/07 08:11:58;;;;;;;7.63;5.53;;;;;;;;;;5006817;28;20113;-58
2021/06/07 08:14:25;;;;;;;9.20;6.03;;;;;;;;;;5017481;28;20045;-58
2021/06/07 08:16:52;;;;;;;9.13;5.53;;;;;;;;;;4997804;28;20038;-58
2021/06/07 08:19:19;;;;;;;11.13;6.03;;;;;;;;;;5000145;28;20058;-58
2021/06/07 08:21:46;;;;;;;6.97;5.82;;;;;;;;;;5003123;28;20485;-58
2021/06/07 08:24:12;;;;;;;11.95;5.97;;;;;;;;;;5004770;28;20045;-58
2021/06/07 08:26:39;;;;;;;7.97;5.83;;;;;;;;;;5004278;28;20044;-58
2021/06/07 08:29:09;;;;;;;7.55;5.30;;;;;;;;;;5003810;28;20531;-59
2021/06/07 08:31:36;;;;;;;13.23;5.70;;;;;;;;;;5003961;28;20120;-59
2021/06/07 08:34:04;;;;;;;9.65;5.85;;;;;;;;;;5000308;28;20056;-58
2021/06/07 08:36:32;;;;;;;7.90;5.93;;;;;;;;;;5006701;28;20054;-59
2021/06/07 08:39:04;;;;;;;9.63;5.60;;;;;;;;;;5003444;28;20046;-59
2021/06/07 08:41:30;;;;;;;9.27;6.60;;;;;;;;;;5005599;28;20528;-58
2021/06/07 08:44:18;;;;;;;10.73;6.32;;;;;;;;;;5001955;28;20076;-59
2021/06/07 08:46:45;;;;;;;9.45;6.20;;;;;;;;;;4999527;28;20050;-59
2021/06/07 08:49:13;;;;;;;8.20;5.97;;;;;;;;;;4998424;28;20057;-59
2021/06/07 08:51:40;;;;;;;10.73;6.72;;;;;;;;;;4997013;28;20072;-59
2021/06/07 08:54:07;;;;;;;;;;;;;;;;;;4997158;28;20046;-58
2021/06/07 08:56:34;;;;;;;9.32;6.68;;;;;;;;;;4997897;28;19941;-58
2021/06/07 08:59:01;;;;;;;10.68;6.53;;;;;;;;;;4994618;28;20038;-58
2021/06/07 09:01:37;;;;;;;11.32;6.90;;;;;;;;;;5005204;28;20080;-58
2021/06/07 09:04:12;;;;;;;10.32;6.55;;;;;;;;;;5002256;28;20042;-58
2021/06/07 09:06:40;;;;;;;10.75;6.97;;;;;;;;;;4999362;28;20132;-58
2021/06/07 09:09:07;;;;;;;7.47;6.03;;;;;;;;;;5002180;28;20052;-58
2021/06/07 09:11:41;;;;;;;8.93;6.80;;;;;;;;;;5001167;28;20050;-58
2021/06/07 09:14:15;;;;;;;10.10;7.63;;;;;;;;;;5003573;28;20413;-59
2021/06/07 09:16:42;;;;;;;12.32;7.50;;;;;;;;;;5003486;28;20383;-59
2021/06/07 09:19:22;;;;;;;14.50;7.45;;;;;;;;;;5000923;28;20092;-58
2021/06/07 09:21:49;;;;;;;8.55;7.63;;;;;;;;;;5003357;28;20046;-58
2021/06/07 09:24:17;;;;;;;8.65;7.82;;;;;;;;;;5004386;28;20064;-59
2021/06/07 09:26:45;;;;;;;13.25;6.85;;;;;;;;;;5000402;28;20049;-58
2021/06/07 09:29:24;;;;;;;10.65;6.45;;;;;;;;;;5003756;28;20494;-59
2021/06/07 09:31:52;;;;;;;8.85;6.40;;;;;;;;;;5007096;28;20072;-59
2021/06/07 09:34:29;;;;;;;8.82;7.03;;;;;;;;;;5004523;28;20065;-58
2021/06/07 09:37:03;;;;;;;10.82;7.55;;;;;;;;;;5007614;28;20043;-58
2021/06/07 09:39:30;;;;;;;8.73;7.32;;;;;;;;;;5006107;28;20096;-59
2021/06/07 09:41:57;;;;;;;9.52;7.05;;;;;;;;;;5005354;28;20042;-58
2021/06/07 09:44:25;;;;;;;9.10;6.25;;;;;;;;;;5004090;28;20693;-58
2021/06/07 09:46:52;;;;;;;6.97;5.35;;;;;;;;;;5008387;28;20045;-58
2021/06/07 09:49:19;;;;;;;;;;;;;;;;;;5005659;28;20058;-58
2021/06/07 09:51:59;;;;;;;8.85;6.43;;;;;;;;;;4998612;28;19925;-58
2021/06/07 09:54:27;;;;;;;7.85;6.38;;;;;;;;;;5009979;28;20608;-58
2021/06/07 09:56:56;;;;;;;9.88;6.20;;;;;;;;;;5005513;28;20416;-59
2021/06/07 09:59:23;;;;;;;10.65;6.10;;;;;;;;;;5005158;28;20045;-58
2021/06/07 10:01:51;;;;;;;13.30;7.22;;;;;;;;;;5004464;28;20069;-58
2021/06/07 10:04:18;;;;;;;14.20;9.13;;;;;;;;;;5005892;28;20045;-58
2021/06/07 10:06:44;;;;;;;11.95;8.02;;;;;;;;;;5005115;28;20046;-58
2021/06/07 10:09:14;;;;;;;11.27;8.60;;;;;;;;;;5006898;28;20033;-59
2021/06/07 10:11:45;;;;;;;12.75;8.75;;;;;;;;;;5004100;28;20099;-59
2021/06/07 10:14:21;;;;;;;9.48;7.00;;;;;;;;;;5004815;28;20079;-59
2021/06/07 10:16:57;;;;;;;9.75;7.35;;;;;;;;;;5002291;28;20133;-59
2021/06/07 10:19:39;;;;;;;10.95;7.90;;;;;;;;;;5007668;28;20064;-58
2021/06/07 10:22:06;;;;;;;16.98;7.68;;;;;;;;;;5005676;28;20077;-59
2021/06/07 10:24:33;;;;;;;10.63;7.07;;;;;;;;;;5006951;28;20056;-58
2021/06/07 10:27:01;;;;;;;10.57;6.53;;;;;;;;;;5007326;28;20050;-58
2021/06/07 10:29:35;;;;;;;9.80;7.40;;;;;;;;;;5004659;28;20515;-54
2021/06/07 10:32:25;;;;;;;15.52;6.38;;;;;;;;;;5006855;28;20084;-53
2021/06/07 10:35:03;;;;;;;9.27;4.95;;;;;;;;;;4968075;28;20108;-54
2021/06/07 10:37:32;;;;;;;7.95;4.75;;;;;;;;;;4963509;28;20043;-54
2021/06/07 10:40:17;;;;;;;8.75;4.88;;;;;;;;;;4966441;28;20043;-52
2021/06/07 10:43:07;;;;;;;7.85;4.93;;;;;;;;;;4964918;28;20058;-52
2021/06/07 10:45:36;;;;;;;5.40;4.35;;;;;;;;;;4962361;28;20372;-53
2021/06/07 10:48:04;;;;;;;5.72;4.53;;;;;;;;;;4963164;28;20038;-51
2021/06/07 10:50:33;;;;;;;8.73;4.80;;;;;;;;;;4963140;28;20047;-51
2021/06/07 10:53:05;;;;;;;10.18;4.30;;;;;;;;;;4967290;28;20051;-50
2021/06/07 10:55:34;;;;;;;12.90;4.53;;;;;;;;;;4966167;28;20167;-49
2021/06/07 10:58:02;;;;;;;8.07;4.40;;;;;;;;;;4966760;28;20039;-50
2021/06/07 11:00:36;;;;;;;4.95;4.40;;;;;;;;;;4966204;28;20039;-49
2021/06/07 11:03:05;;;;;;;6.47;4.85;;;;;;;;;;4961732;28;20054;-50
2021/06/07 11:05:32;;;;;;;8.23;4.88;;;;;;;;;;4967395;28;20044;-50
2021/06/07 11:08:05;;;;;;;6.72;4.78;;;;;;;;;;4967050;28;20511;-53
2021/06/07 11:10:55;;;;;;;7.93;5.20;;;;;;;;;;4963751;28;20066;-53
2021/06/07 11:13:22;;;;;;;7.82;5.85;;;;;;;;;;4964576;28;20043;-52
2021/06/07 11:16:00;;;;;;;11.82;5.10;;;;;;;;;;4967507;28;20754;-53
2021/06/07 11:18:28;;;;;;;6.05;5.22;;;;;;;;;;4964532;28;20050;-54
2021/06/07 11:21:15;;;;;;;10.15;5.15;;;;;;;;;;4967823;28;20043;-54
2021/06/07 11:23:43;;;;;;;5.38;4.88;;;;;;;;;;4967454;28;20526;-51
2021/06/07 11:26:11;;;;;;;7.43;4.28;;;;;;;;;;4965709;28;20042;-52
2021/06/07 11:28:39;;;;;;;6.35;4.53;;;;;;;;;;4963961;28;20503;-53
2021/06/07 11:31:27;;;;;;;5.97;4.20;;;;;;;;;;4965949;28;20066;-55
2021/06/07 11:34:00;;;;;;;6.20;4.13;;;;;;;;;;4989174;28;20140;-52
2021/06/07 11:36:51;;;;;;;4.43;3.92;;;;;;;;;;5002018;28;20047;-54
2021/06/07 11:39:46;;;;;;;4.82;3.28;;;;;;;;;;5001164;28;20050;-53
2021/06/07 11:42:17;;;;;;;4.80;2.75;;;;;;;;;;4998971;28;20038;-50
2021/06/07 11:45:07;;;;;;;4.18;3.13;;;;;;;;;;4994936;28;20058;-51
2021/06/07 11:47:38;;;;;;;10.52;3.17;;;;;;;;;;4997148;28;20046;-53
2021/06/07 11:50:11;;;;;;;4.45;3.00;;;;;;;;;;5004557;28;20100;-52
2021/06/07 11:52:49;;;;;;;9.02;2.72;;;;;;;;;;5003578;28;20096;-51
2021/06/07 11:55:21;;;;;;;3.58;2.78;;;;;;;;;;5002172;28;20038;-51
2021/06/07 11:57:48;;;;;;;5.30;2.85;;;;;;;;;;5004646;28;20046;-54
2021/06/07 12:00:16;;;;;;;3.55;2.55;;;;;;;;;;4997218;28;20181;-51
2021/06/07 12:02:43;;;;;;;4.28;2.55;;;;;;;;;;5005493;28;20048;-52
2021/06/07 12:05:10;;;;;;;;;;;;;;;;;;5004317;28;20080;-54
2021/06/07 12:07:38;;;;;;;4.43;2.60;;;;;;;;;;5005402;28;19933;-54
2021/06/07 12:10:07;;;;;;;6.63;2.92;;;;;;;;;;5005546;28;20041;-50
2021/06/07 12:12:34;;;;;;;2.63;2.20;;;;;;;;;;5003258;28;20062;-50
2021/06/07 12:15:30;;;;;;;7.82;2.60;;;;;;;;;;5002707;28;20046;-51
2021/06/07 12:17:59;;;;;;;3.47;2.50;;;;;;;;;;4991028;28;20128;-53
2021/06/07 12:20:26;;;;;;;5.03;2.80;;;;;;;;;;5002607;28;20554;-52
2021/06/07 12:22:57;;;;;;;4.23;2.83;;;;;;;;;;5000685;28;20076;-53
2021/06/07 12:30:40;;;;;;;4.32;2.50;;;;;;;;;;4999854;28;20050;-53
2021/06/07 12:33:06;;;;;;;;;;;;;;;;;;5001527;28;20058;-51
2021/06/07 12:35:36;;;;;;;6.68;2.97;;;;;;;;;;4998266;28;19922;-55
2021/06/07 12:38:04;;;;;;;4.80;2.58;;;;;;;;;;4996123;28;20038;-54
2021/06/07 12:40:31;;;;;;;6.72;2.83;;;;;;;;;;5004600;28;20065;-51
2021/06/07 12:43:01;;;;;;;2.80;2.45;;;;;;;;;;4998578;28;20053;-49
2021/06/07 12:45:32;;;;;;;2.95;2.45;;;;;;;;;;5004620;28;20054;-50
2021/06/07 12:48:18;;;;;;;5.25;2.60;;;;;;;;;;4999387;28;20058;-55
2021/06/07 12:50:55;;;;;;;5.70;2.90;;;;;;;;;;5001827;28;20446;-52
2021/06/07 12:53:25;;;;;;;7.95;2.97;;;;;;;;;;4998911;28;20107;-53
2021/06/07 12:55:53;;;;;;;4.78;3.08;;;;;;;;;;5003809;28;20042;-54
2021/06/07 12:58:20;;;;;;;;;;;;;;;;;;5002124;28;20052;-55
2021/06/07 13:00:50;;;;;;;3.55;2.10;;;;;;;;;;5005112;28;19921;-50
2021/06/07 13:03:31;;;;;;;8.27;2.90;;;;;;;;;;5007103;28;20124;-55
2021/06/07 13:06:04;;;;;;;3.40;2.20;;;;;;;;;;5007220;28;20046;-50
2021/06/07 13:08:31;;;;;;;5.22;3.10;;;;;;;;;;5006707;28;20042;-53
2021/06/07 13:11:02;;;;;;;11.23;3.45;;;;;;;;;;5007528;28;20068;-49
2021/06/07 13:13:31;;;;;;;6.13;3.50;;;;;;;;;;5006224;28;20405;-54
2021/06/07 13:16:12;;;;;;;5.22;3.38;;;;;;;;;;5006273;28;20391;-53
2021/06/07 13:18:56;;;;;;;5.18;3.50;;;;;;;;;;5003767;28;20620;-55
2021/06/07 13:21:32;;;;;;;8.63;4.18;;;;;;;;;;5005745;28;20096;-53
2021/06/07 13:23:59;;;;;;;5.55;3.80;;;;;;;;;;5007082;28;20094;-55
2021/06/07 13:26:31;;;;;;;5.00;4.22;;;;;;;;;;5008092;28;20042;-53
2021/06/07 13:29:10;;;;;;;6.13;4.03;;;;;;;;;;5004936;28;20112;-54
2021/06/07 13:31:45;;;;;;;6.07;4.47;;;;;;;;;;4996416;28;20221;-55
2021/06/07 13:34:12;;;;;;;8.38;4.40;;;;;;;;;;4999761;28;20146;-55
2021/06/07 13:36:40;;;;;;;11.65;5.35;;;;;;;;;;5000405;28;20516;-55
2021/06/07 13:39:07;;;;;;;7.13;5.23;;;;;;;;;;5007927;28;20470;-54
2021/06/07 13:41:33;;;;;;;10.55;5.18;;;;;;;;;;5002658;28;20274;-54
2021/06/07 13:44:02;;;;;;;7.35;4.38;;;;;;;;;;5008712;28;20191;-55
2021/06/07 13:46:29;;;;;;;10.35;4.10;;;;;;;;;;5005877;28;20133;-55
2021/06/07 13:48:55;;;;;;;7.65;4.00;;;;;;;;;;5004311;28;20049;-55
2021/06/07 13:51:30;;;;;;;8.80;4.68;;;;;;;;;;5000803;28;20129;-54
2021/06/07 13:54:11;;;;;;;7.90;4.43;;;;;;;;;;5007778;28;20077;-55
2021/06/07 13:56:38;;;;;;;10.13;4.68;;;;;;;;;;5000930;28;20123;-55
2021/06/07 13:59:15;;;;;;;11.48;4.93;;;;;;;;;;5007031;28;20038;-56
2021/06/07 14:01:42;;;;;;;7.20;4.28;;;;;;;;;;5003412;28;20050;-53
2021/06/07 14:04:09;;;;;;;4.78;3.22;;;;;;;;;;5005013;28;20034;-56
2021/06/07 14:06:37;;;;;;;6.88;3.50;;;;;;;;;;5001769;28;20053;-55
2021/06/07 14:09:07;;;;;;;4.07;2.58;;;;;;;;;;5007196;28;20076;-55
2021/06/07 14:11:35;;;;;;;3.83;2.78;;;;;;;;;;5005282;28;20038;-56
2021/06/07 14:14:02;;;;;;;5.15;2.78;;;;;;;;;;4999535;28;20502;-56
2021/06/07 14:16:31;;;;;;;7.28;3.03;;;;;;;;;;5005434;28;20540;-55
2021/06/07 14:18:58;;;;;;;4.70;2.40;;;;;;;;;;5003464;28;20042;-57
2021/06/07 14:21:30;;;;;;;4.05;2.17;;;;;;;;;;5004551;28;20109;-57
2021/06/07 14:26:51;;;;;;;5.50;2.55;;;;;;;;;;5002544;28;20125;-56
2021/06/07 14:29:17;;;;;;;5.43;2.58;;;;;;;;;;5001035;28;20058;-57
2021/06/07 14:31:44;;;;;;;8.93;2.43;;;;;;;;;;5004795;28;20041;-56
2021/06/07 14:34:11;;;;;;;6.72;2.42;;;;;;;;;;5004086;28;20316;-57
2021/06/07 14:36:39;;;;;;;4.07;2.20;;;;;;;;;;5001795;28;20048;-56
2021/06/07 14:39:06;;;;;;;3.57;2.20;;;;;;;;;;4994950;28;20101;-57
2021/06/07 14:41:32;;;;;;;3.25;2.10;;;;;;;;;;5005280;28;20395;-56
2021/06/07 14:43:59;;;;;;;5.88;2.55;;;;;;;;;;5000598;28;20071;-57
2021/06/07 14:46:26;;;;;;;8.65;2.28;;;;;;;;;;5004630;28;20073;-56
2021/06/07 14:48:53;;;;;;;5.85;1.80;;;;;;;;;;5001721;28;20101;-57
2021/06/07 14:51:20;;;;;;;2.53;1.87;;;;;;;;;;5000824;28;20069;-57